Stations météo

réclame
Mon MeteoGroup
Punta Galea Golf, Espagne (8059): Température de l'air & dewpoint: 12.01.2019 13:00:00 - 18.01.2019 13:00:00 (CET)Punta Galea Golf, Espagne (8059): Vitesse du vent & gusts: 12.01.2019 13:00:00 - 18.01.2019 13:00:00 (CET)Punta Galea Golf, Espagne (8059): Direction du vent: 12.01.2019 13:00:00 - 18.01.2019 13:00:00 (CET)Punta Galea Golf, Espagne (8059): reduced air pressure: 12.01.2019 13:00:00 - 18.01.2019 13:00:00 (CET)Punta Galea Golf, Espagne (8059): Quantités de précipitations: 12.01.2019 13:00:00 - 18.01.2019 13:00:00 (CET)
Date & Time tt [°C] td [°C] ff [km/h] ff [knt] fx [km/h] fx [knt] dd ppp [hPa] rr [mm]
18.01.2019 13:00:00 - - - - - - - - -
18.01.2019 12:00:00 6,6 6,1 8 4 12 6 SSE 1021,0 0,4
18.01.2019 11:00:00 6,1 5,5 7 4 13 7 SSE 1021,6 0,3
18.01.2019 10:00:00 6,0 5,5 8 4 13 7 SSE 1020,8 0,1
18.01.2019 09:00:00 5,4 5,0 9 5 13 7 SSE 1021,0 0,0
18.01.2019 08:00:00 5,4 5,0 8 4 13 7 SSE 1020,8 0,0
18.01.2019 07:00:00 5,5 5,1 8 4 12 6 SSE 1020,9 -
18.01.2019 06:00:00 5,4 5,0 9 5 12 6 SSE 1021,2 0,0
18.01.2019 05:00:00 5,4 5,0 8 4 13 7 SSE 1021,9 0,0
18.01.2019 04:00:00 5,0 4,6 8 4 12 6 SSE 1022,3 0,0
18.01.2019 03:00:00 5,3 4,6 8 4 13 7 SSE 1022,6 0,0
18.01.2019 02:00:00 5,8 5,1 4 2 10 6 S 1023,1 0,0
18.01.2019 01:00:00 6,4 5,8 5 3 14 7 S 1023,4 -
18.01.2019 00:00:00 6,6 5,9 6 4 13 7 SSW 1024,1 0,3
17.01.2019 23:00:00 6,7 5,8 4 2 14 8 SW 1023,6 0,7
17.01.2019 22:00:00 7,1 5,6 4 2 12 6 WSW 1023,4 0,0
17.01.2019 21:00:00 7,5 5,6 6 3 23 12 WSW 1022,6 0,0
17.01.2019 20:00:00 8,0 6,7 9 5 23 13 W 1023,0 0,0
17.01.2019 19:00:00 7,8 6,5 11 6 28 15 W 1022,7 -
17.01.2019 18:00:00 8,2 7,0 10 5 21 11 WNW 1022,2 2,0
17.01.2019 17:00:00 8,4 6,7 13 7 28 15 W 1022,2 0,9
17.01.2019 16:00:00 9,2 6,2 13 7 31 17 W 1021,7 0,0
17.01.2019 15:00:00 8,7 6,7 14 7 28 15 W 1021,5 0,0
17.01.2019 14:00:00 8,5 6,2 13 7 39 21 WNW 1021,6 0,0
17.01.2019 13:00:00 10,3 6,8 13 7 27 15 WNW 1021,8 -
17.01.2019 12:00:00 9,2 7,1 10 5 29 16 W 1022,5 0,4
17.01.2019 11:00:00 9,5 6,1 13 7 32 17 W 1022,3 0,0
17.01.2019 10:00:00 8,3 7,0 5 3 23 12 WSW 1021,6 0,0
17.01.2019 09:00:00 8,4 7,0 11 6 31 17 WNW 1021,0 0,1
17.01.2019 08:00:00 8,6 7,3 11 6 22 12 W 1020,6 0,0
17.01.2019 07:00:00 8,3 7,7 11 6 24 13 W 1020,2 -
17.01.2019 06:00:00 8,5 8,1 7 4 18 10 W 1019,6 1,5
17.01.2019 05:00:00 7,5 7,0 8 5 14 8 SSE 1019,7 0,1
17.01.2019 04:00:00 8,7 8,1 8 5 24 13 W 1019,5 6,6
17.01.2019 03:00:00 8,3 7,7 5 3 23 12 W 1019,1 3,0
17.01.2019 02:00:00 9,4 8,7 11 6 21 12 WNW 1018,9 1,4
17.01.2019 01:00:00 7,5 5,8 6 4 16 9 S 1018,9 -
17.01.2019 00:00:00 7,8 5,5 10 5 18 10 SSE 1018,6 0,0
16.01.2019 23:00:00 7,8 5,9 9 5 15 8 S 1018,7 0,0
16.01.2019 22:00:00 8,4 6,5 7 4 18 10 SSW 1018,7 0,1
16.01.2019 21:00:00 8,6 6,1 10 5 19 10 SW 1018,3 0,6
16.01.2019 20:00:00 10,0 5,1 6 3 13 7 S 1017,7 0,0
16.01.2019 19:00:00 10,8 4,5 5 3 13 7 SW 1017,5 -
16.01.2019 18:00:00 11,2 5,1 6 3 14 8 SW 1017,2 0,0
16.01.2019 17:00:00 11,9 4,8 7 4 13 7 SW 1016,9 0,0
16.01.2019 16:00:00 12,9 5,8 3 2 11 6 SSW 1016,8 0,0
16.01.2019 15:00:00 13,5 6,4 6 3 13 7 SSW 1016,6 0,0
16.01.2019 14:00:00 11,8 7,7 3 1 11 6 W 1017,4 0,0
16.01.2019 13:00:00 11,9 5,5 5 3 12 7 W 1017,8 -
16.01.2019 12:00:00 11,7 5,3 6 4 13 7 W 1018,6 0,0
16.01.2019 11:00:00 10,1 6,8 5 3 11 6 WSW 1018,4 0,0
16.01.2019 10:00:00 8,2 4,6 1 1 8 4 WSW 1018,3 0,0
16.01.2019 09:00:00 6,7 3,8 5 3 10 5 S 1017,9 0,0
16.01.2019 08:00:00 6,9 4,1 6 3 8 5 SSE 1017,4 0,0
16.01.2019 07:00:00 6,0 4,1 3 2 8 4 SSE 1017,2 -
16.01.2019 06:00:00 5,5 4,1 4 2 10 5 S 1017,0 0,0
16.01.2019 05:00:00 5,0 4,1 5 3 13 7 SSW 1016,9 0,0
16.01.2019 04:00:00 4,8 4,3 8 5 17 9 SW 1017,6 0,0
16.01.2019 03:00:00 4,3 3,9 8 4 17 9 SSW 1017,7 0,0
16.01.2019 02:00:00 4,2 3,8 10 5 14 8 S 1018,0 0,0
16.01.2019 01:00:00 4,6 4,1 10 5 14 8 S 1018,6 -
16.01.2019 00:00:00 5,2 4,6 10 5 15 8 S 1019,4 0,0
15.01.2019 23:00:00 5,3 4,6 8 4 11 6 S 1019,4 0,0
15.01.2019 22:00:00 6,0 5,3 8 4 12 6 SSE 1019,7 0,0
15.01.2019 21:00:00 6,3 5,3 6 4 9 5 SSE 1020,0 0,0
15.01.2019 20:00:00 6,9 5,6 5 3 6 4 SSE 1020,1 0,0
15.01.2019 19:00:00 7,6 5,9 3 2 8 5 ESE 1020,0 -
15.01.2019 18:00:00 8,6 6,2 0 0 13 7 ENE 1020,0 0,0
15.01.2019 17:00:00 10,1 6,8 8 5 14 8 ENE 1019,9 0,0
15.01.2019 16:00:00 10,9 6,7 6 3 15 8 E 1020,4 0,0
15.01.2019 15:00:00 11,1 6,4 5 3 14 8 ENE 1020,9 0,0
15.01.2019 14:00:00 11,1 6,4 6 4 16 9 SSE 1022,0 0,0
15.01.2019 13:00:00 10,5 6,8 8 4 16 9 SSE 1023,0 -
15.01.2019 12:00:00 9,5 7,8 9 5 39 21 SE 1024,6 0,0
15.01.2019 11:00:00 8,8 8,5 5 3 11 6 SSE 1025,1 0,0
15.01.2019 10:00:00 8,6 8,3 4 2 8 5 S 1024,8 0,0
15.01.2019 09:00:00 8,4 8,1 4 2 10 5 SSE 1024,6 0,0
15.01.2019 08:00:00 8,5 8,3 6 3 11 6 SSE 1024,8 0,0
15.01.2019 07:00:00 8,7 8,4 5 3 10 5 S 1024,5 -
15.01.2019 06:00:00 8,6 8,3 5 3 9 5 SSE 1025,0 0,0
15.01.2019 05:00:00 8,6 8,3 6 3 9 5 S 1025,7 0,0
15.01.2019 04:00:00 8,7 8,4 3 1 15 8 S 1026,3 0,1
15.01.2019 03:00:00 8,8 8,5 5 3 9 5 E 1026,7 0,4
15.01.2019 02:00:00 8,8 8,5 5 3 8 4 S 1026,5 0,0
15.01.2019 01:00:00 9,4 9,0 4 2 7 4 SSW 1027,0 -
15.01.2019 00:00:00 9,4 9,0 4 2 9 5 SSE 1027,4 1,8
14.01.2019 23:00:00 9,6 9,3 4 2 7 4 WNW 1027,4 0,2
14.01.2019 22:00:00 9,6 9,3 2 1 7 4 WSW 1027,3 0,0
14.01.2019 21:00:00 9,5 9,2 0 0 7 4 W 1027,7 0,0
14.01.2019 20:00:00 9,4 9,0 4 2 14 8 WSW 1027,3 0,0
14.01.2019 19:00:00 9,6 9,3 8 4 21 11 W 1027,7 -
14.01.2019 18:00:00 9,6 9,2 11 6 23 12 WNW 1027,8 0,1
14.01.2019 17:00:00 10,5 9,6 11 6 24 13 WNW 1027,7 0,0
14.01.2019 16:00:00 10,8 9,6 11 6 21 11 WNW 1027,6 0,0
14.01.2019 15:00:00 11,2 9,9 8 4 18 10 WNW 1027,6 0,0
14.01.2019 14:00:00 10,9 10,3 9 5 23 13 WNW 1027,8 0,0
14.01.2019 13:00:00 - - - - - - - - -
14.01.2019 12:00:00 9,5 8,9 13 7 24 13 NW 1029,2 0,1
14.01.2019 11:00:00 9,7 8,9 10 6 23 12 NW 1029,5 0,0
14.01.2019 10:00:00 9,5 8,9 12 6 27 15 WNW 1029,0 0,0
14.01.2019 09:00:00 10,1 8,3 10 5 31 17 WNW 1028,3 0,0
14.01.2019 08:00:00 10,2 8,5 18 10 34 18 WNW 1027,9 0,0
14.01.2019 07:00:00 10,2 8,0 10 5 27 15 WNW 1027,9 -
14.01.2019 06:00:00 10,1 8,5 10 5 34 18 WNW 1027,8 0,0
14.01.2019 05:00:00 9,8 8,4 18 10 35 19 WNW 1028,3 0,1
14.01.2019 04:00:00 10,7 8,4 9 5 30 16 WNW 1028,3 0,0
14.01.2019 03:00:00 10,6 8,9 11 6 36 19 WNW 1028,9 0,0
14.01.2019 02:00:00 10,7 8,0 14 8 27 15 WNW 1029,3 0,0
14.01.2019 01:00:00 10,8 8,8 13 7 28 15 WNW 1029,5 -
14.01.2019 00:00:00 10,7 8,9 10 5 23 12 W 1030,0 0,0
13.01.2019 23:00:00 9,9 9,2 9 5 23 13 WNW 1030,3 0,1
13.01.2019 22:00:00 10,5 8,8 8 5 17 9 WNW 1030,5 0,0
13.01.2019 21:00:00 10,5 8,4 10 5 21 11 W 1030,2 0,0
13.01.2019 20:00:00 10,6 8,1 8 5 22 12 WNW 1030,5 0,0
13.01.2019 19:00:00 10,6 8,1 9 5 25 13 WNW 1030,3 -
13.01.2019 18:00:00 10,7 8,0 14 7 26 14 WNW 1030,6 0,0
13.01.2019 17:00:00 11,3 8,4 13 7 24 13 WNW 1030,4 0,0
13.01.2019 16:00:00 11,1 7,6 15 8 29 16 NW 1030,6 0,0
13.01.2019 15:00:00 11,3 7,8 12 7 25 14 NW 1031,0 0,0
13.01.2019 14:00:00 11,5 7,6 11 6 25 14 WNW 1031,7 0,0
13.01.2019 13:00:00 10,9 7,6 8 4 19 10 WNW 1032,4 -
13.01.2019 12:00:00 10,4 7,3 10 5 22 12 WNW 1033,2 0,0
13.01.2019 11:00:00 10,3 7,4 10 6 20 11 W 1033,2 0,0
13.01.2019 10:00:00 9,9 7,0 9 5 20 11 WNW 1033,1 0,0
13.01.2019 09:00:00 9,9 7,3 8 5 21 11 WNW 1033,1 0,0
13.01.2019 08:00:00 9,9 7,0 9 5 16 9 W 1032,6 0,0
13.01.2019 07:00:00 9,9 7,0 8 5 18 10 W 1033,0 -
13.01.2019 06:00:00 9,7 7,3 7 4 18 10 WNW 1033,0 0,0
13.01.2019 05:00:00 9,5 7,3 7 4 17 9 WNW 1033,2 0,0
13.01.2019 04:00:00 9,3 7,4 6 4 16 9 WNW 1033,9 0,0
13.01.2019 03:00:00 9,3 7,3 6 3 14 8 WNW 1033,6 0,0
13.01.2019 02:00:00 9,5 7,3 6 3 20 11 WNW 1034,1 0,0
13.01.2019 01:00:00 9,8 6,5 11 6 24 13 NW 1034,4 -
13.01.2019 00:00:00 10,1 5,6 8 4 21 11 NNW 1035,0 0,0
12.01.2019 23:00:00 10,1 6,1 9 5 26 14 NNW 1034,9 0,0
12.01.2019 22:00:00 10,1 7,1 8 4 21 12 N 1034,8 0,0
12.01.2019 21:00:00 10,1 7,3 6 3 22 12 NNE 1034,9 0,0
12.01.2019 20:00:00 10,1 7,1 12 7 28 15 NNE 1035,0 0,0
12.01.2019 19:00:00 10,0 8,3 10 5 24 13 NNW 1034,5 -
12.01.2019 18:00:00 9,3 7,8 8 4 16 9 WNW 1034,1 0,0
12.01.2019 17:00:00 8,7 7,3 7 4 26 14 ENE 1034,1 0,0
12.01.2019 16:00:00 8,9 7,7 13 7 24 13 NE 1034,0 0,1
12.01.2019 15:00:00 9,2 8,7 13 7 26 14 WNW 1034,0 0,0
12.01.2019 14:00:00 8,9 8,3 15 8 25 14 NW 1034,2 1,8
12.01.2019 13:00:00 8,5 8,1 3 2 13 7 W 1034,6 -

tt = Température de l'air
td = dewpoint
ff = Vitesse du vent
fx = gusts
dd = Direction du vent
ppp = reduced air pressure
rr = Quantités de précipitations

stations d'obs. à proximité